createdAt,value
2022-11-18T00:01:21.689Z,98134.78
2022-11-18T00:03:50.386Z,98141.56
2022-11-18T00:06:20.589Z,98130.56
2022-11-18T00:08:49.279Z,98134.81
2022-11-18T00:11:40.020Z,98133.13
2022-11-18T00:14:21.462Z,98126.38
2022-11-18T00:16:52.974Z,98119.56
2022-11-18T00:19:21.601Z,98119.59
2022-11-18T00:21:49.928Z,98119.66
2022-11-18T00:24:18.312Z,98113.78
2022-11-18T00:26:46.761Z,98112.13
2022-11-18T00:29:15.334Z,98113.84
2022-11-18T00:31:44.569Z,98101.22
2022-11-18T00:34:15.670Z,98101.28
2022-11-18T00:36:45.119Z,98105.59
2022-11-18T00:39:14.494Z,98106.34
2022-11-18T00:41:53.577Z,98108.06
2022-11-18T00:44:21.939Z,98119.06
2022-11-18T00:46:50.259Z,98113.16
2022-11-18T00:49:20.115Z,98113.13
2022-11-18T00:51:48.451Z,98099.59
2022-11-18T00:54:16.849Z,98099.59
2022-11-18T00:56:45.030Z,98099.59
2022-11-18T00:59:13.491Z,98102.13
2022-11-18T01:01:41.784Z,98109.75
2022-11-18T01:04:10.227Z,98106.31
2022-11-18T01:06:39.829Z,98105.44
2022-11-18T01:09:08.540Z,98107.97
2022-11-18T01:11:47.084Z,98106.25
2022-11-18T01:14:15.489Z,98112.97
2022-11-18T01:16:43.698Z,98117.19
2022-11-18T01:19:12.568Z,98120.56
2022-11-18T01:21:42.164Z,98114.66
2022-11-18T01:24:10.521Z,98115.44
2022-11-18T01:26:38.699Z,98106.94
2022-11-18T01:29:07.107Z,98111.22
2022-11-18T01:31:35.393Z,98103.56
2022-11-18T01:34:04.072Z,98106.09
2022-11-18T01:36:32.411Z,98113.72
2022-11-18T01:39:02.544Z,98105.22
2022-11-18T01:41:30.824Z,98116.31
2022-11-18T01:44:00.242Z,98120.56
2022-11-18T01:46:29.539Z,98115.44
2022-11-18T01:49:01.372Z,98111.22
2022-11-18T01:51:31.909Z,98097.59
2022-11-18T01:54:01.999Z,98100.19
2022-11-18T01:56:34.234Z,98096.78
2022-11-18T01:59:04.598Z,98097.59
2022-11-18T02:01:33.108Z,98099.28
2022-11-18T02:04:01.904Z,98112.84
2022-11-18T02:06:30.381Z,98116.41
2022-11-18T02:08:59.110Z,98114.81
2022-11-18T02:11:37.354Z,98111.44
2022-11-18T02:14:08.173Z,98108.06
2022-11-18T02:16:42.573Z,98103.72
2022-11-18T02:19:20.100Z,98101.16
2022-11-18T02:21:56.982Z,98090.25
2022-11-18T02:24:30.692Z,98091.97
2022-11-18T02:27:10.323Z,98089.50
2022-11-18T02:29:44.294Z,98079.38
2022-11-18T02:32:15.002Z,98079.34
2022-11-18T02:34:49.069Z,98068.28
2022-11-18T02:37:20.583Z,98069.03
2022-11-18T02:39:53.467Z,98060.63
2022-11-18T02:42:22.652Z,98050.50
2022-11-18T02:44:54.321Z,98043.81
2022-11-18T02:47:24.677Z,98033.63
2022-11-18T02:49:55.791Z,98027.63
2022-11-18T02:52:25.742Z,98025.03
2022-11-18T02:54:55.359Z,98018.25
2022-11-18T02:57:25.285Z,98010.72
2022-11-18T02:59:55.092Z,98002.25
2022-11-18T03:02:23.783Z,97998.84
2022-11-18T03:04:56.563Z,97995.44
2022-11-18T03:07:27.558Z,97998.75
2022-11-18T03:09:56.572Z,98008.91
2022-11-18T03:12:31.582Z,98008.03
2022-11-18T03:15:08.949Z,98012.28
2022-11-18T03:17:44.959Z,98018.19
2022-11-18T03:20:16.802Z,98023.25
2022-11-18T03:22:49.168Z,98019.84
2022-11-18T03:25:21.703Z,98027.50
2022-11-18T03:27:54.044Z,98026.72
2022-11-18T03:30:24.939Z,98025.03
2022-11-18T03:32:57.702Z,98020.81
2022-11-18T03:35:27.053Z,98019.13
2022-11-18T03:37:58.405Z,98014.91
2022-11-18T03:40:28.432Z,98014.91
2022-11-18T03:43:00.127Z,98018.25
2022-11-18T03:45:31.931Z,98025.03
2022-11-18T03:48:03.929Z,98013.31
2022-11-18T03:50:34.379Z,98008.22
2022-11-18T03:53:03.208Z,98025.13
2022-11-18T03:55:34.860Z,98017.53
2022-11-18T03:58:05.050Z,98018.47
2022-11-18T04:00:42.563Z,98030.31
2022-11-18T04:03:11.622Z,98026.97
2022-11-18T04:05:41.409Z,98027.78
2022-11-18T04:08:13.675Z,98028.56
2022-11-18T04:10:44.232Z,98034.47
2022-11-18T04:13:15.292Z,98026.91
2022-11-18T04:15:45.804Z,98037.06
2022-11-18T04:18:14.181Z,98033.72
2022-11-18T04:20:42.870Z,98026.97
2022-11-18T04:23:11.579Z,98035.50
2022-11-18T04:25:40.067Z,98027.03
2022-11-18T04:28:10.568Z,98030.47
2022-11-18T04:30:38.910Z,98023.66
2022-11-18T04:33:08.601Z,98027.97
2022-11-18T04:35:36.972Z,98025.56
2022-11-18T04:38:05.348Z,98023.06
2022-11-18T04:40:33.800Z,98030.72
2022-11-18T04:43:02.079Z,98030.75
2022-11-18T04:45:30.451Z,98032.53
2022-11-18T04:48:03.300Z,98030.88
2022-11-18T04:50:33.730Z,98034.28
2022-11-18T04:53:02.070Z,98034.28
2022-11-18T04:55:30.330Z,98033.44
2022-11-18T04:57:58.923Z,98036.78
2022-11-18T05:00:27.232Z,98030.84
2022-11-18T05:02:56.799Z,98024.97
2022-11-18T05:05:25.121Z,98021.63
2022-11-18T05:07:54.903Z,98013.97
2022-11-18T05:10:23.171Z,98008.91
2022-11-18T05:12:50.427Z,98009.72
2022-11-18T05:15:19.367Z,98014.72
2022-11-18T05:17:48.102Z,98013.06
2022-11-18T05:20:16.845Z,98012.31
2022-11-18T05:22:45.198Z,98010.66
2022-11-18T05:25:15.329Z,98017.31
2022-11-18T05:27:43.680Z,98019.06
2022-11-18T05:30:12.610Z,98014.75
2022-11-18T05:32:40.942Z,98007.94
2022-11-18T05:35:09.610Z,98015.59
2022-11-18T05:37:37.991Z,98013.06
2022-11-18T05:40:06.864Z,98008.78
2022-11-18T05:42:46.505Z,98002.81
2022-11-18T05:45:16.274Z,97998.53
2022-11-18T05:47:58.502Z,97990.09
2022-11-18T05:50:26.869Z,97978.22
2022-11-18T05:52:55.121Z,97972.22
2022-11-18T05:55:25.713Z,97974.69
2022-11-18T05:57:55.461Z,97956.94
2022-11-18T06:00:23.779Z,97963.66
2022-11-18T06:02:53.965Z,97955.19
2022-11-18T06:05:24.192Z,97950.97
2022-11-18T06:07:52.561Z,97952.63
2022-11-18T06:10:23.788Z,97943.28
2022-11-18T06:12:54.121Z,97936.53
2022-11-18T06:15:25.711Z,97932.31
2022-11-18T06:17:56.002Z,97939.09
2022-11-18T06:20:24.591Z,97943.28
2022-11-18T06:22:55.573Z,97942.38
2022-11-18T06:25:24.455Z,97936.47
2022-11-18T06:27:53.697Z,97931.34
2022-11-18T06:30:24.374Z,97942.31
2022-11-18T06:32:52.763Z,97939.75
2022-11-18T06:35:21.043Z,97929.66
2022-11-18T06:37:51.331Z,97943.19
2022-11-18T06:40:20.374Z,97946.63
2022-11-18T06:42:58.542Z,97947.47
2022-11-18T06:45:28.242Z,97947.38
2022-11-18T06:47:57.063Z,97946.53
2022-11-18T06:50:25.817Z,97955.84
2022-11-18T06:52:54.225Z,97955.84
2022-11-18T06:55:22.552Z,97968.50
2022-11-18T06:57:51.483Z,97976.06
2022-11-18T07:00:20.181Z,97969.25
2022-11-18T07:02:49.893Z,97972.69
2022-11-18T07:05:18.432Z,97983.72
2022-11-18T07:07:46.750Z,97972.72
2022-11-18T07:10:15.352Z,97972.72
2022-11-18T07:12:43.655Z,97984.72
2022-11-18T07:15:12.134Z,97977.16
2022-11-18T07:17:40.423Z,97976.34
2022-11-18T07:20:11.042Z,97972.06
2022-11-18T07:22:39.427Z,97966.97
2022-11-18T07:25:07.694Z,97964.47
2022-11-18T07:27:36.424Z,97972.03
2022-11-18T07:30:04.931Z,97966.00
2022-11-18T07:32:34.355Z,97974.34
2022-11-18T07:35:02.731Z,97967.47
2022-11-18T07:37:32.683Z,97975.88
2022-11-18T07:40:01.062Z,97976.66
2022-11-18T07:42:29.291Z,97973.19
2022-11-18T07:44:57.584Z,97987.59
2022-11-18T07:47:25.853Z,97990.22
2022-11-18T07:49:54.575Z,97976.66
2022-11-18T07:52:22.986Z,97987.72
2022-11-18T07:54:52.905Z,97994.53
2022-11-18T07:57:21.414Z,97985.22
2022-11-18T07:59:49.654Z,97980.13
2022-11-18T08:02:18.016Z,97975.03
2022-11-18T08:04:46.282Z,97968.31
2022-11-18T08:07:14.980Z,97954.78
2022-11-18T08:09:43.281Z,97953.06
2022-11-18T08:12:13.013Z,97953.91
2022-11-18T08:14:41.317Z,97961.59
2022-11-18T08:17:09.662Z,97955.66
2022-11-18T08:19:37.985Z,97953.09
2022-11-18T08:22:06.270Z,97955.50
2022-11-18T08:24:34.578Z,97957.91
2022-11-18T08:27:03.015Z,97966.31
2022-11-18T08:29:32.852Z,97974.84
2022-11-18T08:32:01.572Z,97971.47
2022-11-18T08:34:30.415Z,97968.91
2022-11-18T08:36:59.185Z,97958.75
2022-11-18T08:39:27.510Z,97951.09
2022-11-18T08:41:56.361Z,97945.94
2022-11-18T08:44:24.591Z,97948.47
2022-11-18T08:46:54.280Z,97939.25
2022-11-18T08:49:22.522Z,97940.09
2022-11-18T08:51:50.773Z,97942.63
2022-11-18T08:54:19.044Z,97945.19
2022-11-18T08:56:47.331Z,97939.19
2022-11-18T08:59:15.998Z,97938.31
2022-11-18T09:01:44.497Z,97950.03
2022-11-18T09:04:14.434Z,97956.66
2022-11-18T09:06:42.789Z,97948.25
2022-11-18T09:09:11.252Z,97960.00
2022-11-18T09:11:40.416Z,97963.31
2022-11-18T09:16:56.942Z,97960.09
2022-11-18T09:22:15.556Z,97973.44
2022-11-18T09:24:45.153Z,97967.41
2022-11-18T09:27:16.927Z,97961.50
2022-11-18T09:29:45.893Z,97966.59
2022-11-18T09:32:14.090Z,97956.50
2022-11-18T09:34:44.504Z,97955.59
2022-11-18T09:37:13.028Z,97949.69
2022-11-18T09:39:41.325Z,97937.78
2022-11-18T09:42:17.498Z,97931.09
2022-11-18T09:45:07.347Z,97911.69
2022-11-18T09:47:38.804Z,97909.03
2022-11-18T09:50:41.591Z,97905.59
2022-11-18T09:53:05.714Z,97923.19
2022-11-18T09:55:36.004Z,97925.69
2022-11-18T09:58:08.055Z,97925.69
2022-11-18T10:00:36.454Z,97929.78
2022-11-18T10:03:06.596Z,97928.03
2022-11-18T10:05:43.750Z,97933.91
2022-11-18T10:08:18.573Z,97927.09
2022-11-18T10:10:56.706Z,97923.78
2022-11-18T10:13:33.273Z,97907.00
2022-11-18T10:16:05.032Z,97905.28
2022-11-18T10:18:59.057Z,97897.56
2022-11-18T10:21:34.264Z,97891.59
2022-11-18T10:24:04.293Z,97903.41
2022-11-18T10:26:36.172Z,97898.28
2022-11-18T10:29:07.677Z,97895.63
2022-11-18T10:31:37.901Z,97892.97
2022-11-18T10:34:06.174Z,97903.09
2022-11-18T10:36:38.101Z,97901.28
2022-11-18T10:39:07.103Z,97904.63
2022-11-18T10:41:40.073Z,97901.97
2022-11-18T10:44:28.982Z,97906.09
2022-11-18T10:46:57.645Z,97915.38
2022-11-18T10:49:26.007Z,97911.19
2022-11-18T10:52:10.397Z,97920.53
2022-11-18T10:54:39.093Z,97922.22
2022-11-18T10:57:08.671Z,97921.41
2022-11-18T10:59:41.509Z,97921.47
2022-11-18T11:02:16.745Z,97932.56
2022-11-18T11:04:46.189Z,97920.75
2022-11-18T11:07:25.339Z,97917.38
2022-11-18T11:10:12.336Z,97915.69
2022-11-18T11:12:47.441Z,97904.63
2022-11-18T11:15:18.613Z,97908.03
2022-11-18T11:18:09.811Z,97904.63
2022-11-18T11:20:38.185Z,97918.13
2022-11-18T11:23:11.759Z,97909.66
2022-11-18T11:28:38.555Z,97911.41
2022-11-18T11:31:15.332Z,97906.31
2022-11-18T11:33:48.244Z,97906.31
2022-11-18T11:36:22.376Z,97910.50
2022-11-18T11:39:04.281Z,97906.22
2022-11-18T11:41:40.755Z,97901.13
2022-11-18T11:44:19.165Z,97908.75
2022-11-18T11:47:08.575Z,97911.25
2022-11-18T11:49:45.395Z,97914.69
2022-11-18T11:52:18.226Z,97912.13
2022-11-18T11:54:53.773Z,97914.69
2022-11-18T11:57:26.753Z,97914.69
2022-11-18T12:00:03.086Z,97916.50
2022-11-18T12:02:55.346Z,97920.03
2022-11-18T12:05:24.707Z,97925.34
2022-11-18T12:07:55.879Z,97917.69
2022-11-18T12:10:31.794Z,97918.66
2022-11-18T12:13:09.137Z,97923.88
2022-11-18T12:15:43.867Z,97917.25
2022-11-18T12:18:17.115Z,97910.50
2022-11-18T12:20:47.335Z,97907.94
2022-11-18T12:23:18.095Z,97913.06
2022-11-18T12:25:54.990Z,97903.81
2022-11-18T12:28:28.804Z,97890.28
2022-11-18T12:31:07.923Z,97889.41
2022-11-18T12:33:43.489Z,97885.97
2022-11-18T12:36:26.735Z,97876.69
2022-11-18T12:38:55.445Z,97869.97
2022-11-18T12:41:48.175Z,97870.03
2022-11-18T12:44:24.319Z,97864.94
2022-11-18T12:46:53.871Z,97866.66
2022-11-18T12:49:33.248Z,97866.66
2022-11-18T12:52:01.997Z,97868.44
2022-11-18T12:54:33.467Z,97865.09
2022-11-18T12:57:03.196Z,97860.06
2022-11-18T12:59:34.234Z,97865.94
2022-11-18T13:02:03.917Z,97853.25
2022-11-18T13:04:32.286Z,97860.06
2022-11-18T13:07:01.580Z,97865.06
2022-11-18T13:09:31.656Z,97871.72
2022-11-18T13:12:08.964Z,97874.31
2022-11-18T13:14:51.417Z,97869.19
2022-11-18T13:17:36.558Z,97873.38
2022-11-18T13:20:04.996Z,97870.03
2022-11-18T13:22:42.360Z,97877.00
2022-11-18T13:25:21.497Z,97888.06
2022-11-18T13:27:53.687Z,97883.03
2022-11-18T13:30:23.397Z,97893.25
2022-11-18T13:32:52.894Z,97894.94
2022-11-18T13:35:23.155Z,97896.72
2022-11-18T13:37:53.437Z,97897.59
2022-11-18T13:40:23.510Z,97895.03
2022-11-18T13:42:51.756Z,97900.13
2022-11-18T13:45:20.348Z,97897.53
2022-11-18T13:47:52.215Z,97890.81
2022-11-18T13:50:23.657Z,97897.63
2022-11-18T13:52:54.988Z,97888.34
2022-11-18T13:55:24.898Z,97890.94
2022-11-18T13:57:57.938Z,97886.81
2022-11-18T14:00:27.484Z,97899.63
2022-11-18T14:02:58.431Z,97895.50
2022-11-18T14:05:27.047Z,97889.63
2022-11-18T14:08:01.066Z,97887.97
2022-11-18T14:10:38.193Z,97884.69
2022-11-18T14:13:18.364Z,97888.16
2022-11-18T14:15:46.949Z,97891.63
2022-11-18T14:18:22.508Z,97895.06
2022-11-18T14:20:52.354Z,97895.94
2022-11-18T14:23:23.851Z,97890.88
2022-11-18T14:25:52.230Z,97884.19
2022-11-18T14:28:22.792Z,97885.06
2022-11-18T14:31:02.276Z,97886.78
2022-11-18T14:33:32.599Z,97886.03
2022-11-18T14:36:01.954Z,97890.31
2022-11-18T14:38:51.981Z,97895.38
2022-11-18T14:41:44.677Z,97892.03
2022-11-18T14:44:14.550Z,97895.50
2022-11-18T14:46:44.070Z,97892.13
2022-11-18T14:49:15.726Z,97891.41
2022-11-18T14:51:44.462Z,97892.25
2022-11-18T14:54:14.160Z,97889.66
2022-11-18T14:56:43.034Z,97892.19
2022-11-18T14:59:13.658Z,97894.75
2022-11-18T15:01:43.028Z,97895.63
2022-11-18T15:04:11.663Z,97896.50
2022-11-18T15:06:41.560Z,97893.13
2022-11-18T15:09:10.122Z,97892.28
2022-11-18T15:11:38.436Z,97899.13
2022-11-18T15:14:06.867Z,97889.78
2022-11-18T15:16:35.672Z,97894.91
2022-11-18T15:19:05.295Z,97903.34
2022-11-18T15:21:33.873Z,97915.22
2022-11-18T15:24:03.630Z,97910.22
2022-11-18T15:26:38.101Z,97913.66
2022-11-18T15:29:06.699Z,97911.19
2022-11-18T15:31:34.968Z,97923.06
2022-11-18T15:34:06.740Z,97918.06
2022-11-18T15:36:35.681Z,97918.94
2022-11-18T15:39:05.390Z,97917.19
2022-11-18T15:41:33.921Z,97926.50
2022-11-18T15:44:03.020Z,97924.03
2022-11-18T15:46:33.480Z,97928.31
2022-11-18T15:49:02.061Z,97924.16
2022-11-18T15:51:31.498Z,97936.91
2022-11-18T15:53:59.920Z,97933.59
2022-11-18T15:56:30.706Z,97929.31
2022-11-18T15:59:00.380Z,97933.63
2022-11-18T16:01:29.536Z,97937.88
2022-11-18T16:03:58.191Z,97937.06
2022-11-18T16:06:26.495Z,97939.72
2022-11-18T16:08:59.498Z,97951.56
2022-11-18T16:11:40.573Z,97947.31
2022-11-18T16:14:09.914Z,97959.22
2022-11-18T16:16:38.464Z,97958.44
2022-11-18T16:19:08.183Z,97950.81
2022-11-18T16:21:37.853Z,97935.66
2022-11-18T16:24:07.368Z,97943.28
2022-11-18T16:26:37.475Z,97947.47
2022-11-18T16:29:07.026Z,97945.81
2022-11-18T16:31:45.101Z,97958.50
2022-11-18T16:34:14.741Z,97955.97
2022-11-18T16:36:44.133Z,97961.03
2022-11-18T16:39:13.575Z,97958.50
2022-11-18T16:41:44.376Z,97959.44
2022-11-18T16:44:14.814Z,97969.63
2022-11-18T16:46:44.413Z,97970.50
2022-11-18T16:49:14.727Z,97976.41
2022-11-18T16:51:44.146Z,97974.78
2022-11-18T16:54:17.277Z,97973.13
2022-11-18T16:56:47.748Z,97988.38
2022-11-18T16:59:17.496Z,97983.31
2022-11-18T17:01:46.304Z,97988.41
2022-11-18T17:04:14.884Z,97985.03
2022-11-18T17:06:43.375Z,97989.25
2022-11-18T17:09:14.516Z,97986.78
2022-11-18T17:11:42.842Z,97992.72
2022-11-18T17:14:12.608Z,97990.25
2022-11-18T17:16:41.150Z,97989.38
2022-11-18T17:19:12.843Z,97989.44
2022-11-18T17:21:41.224Z,97997.03
2022-11-18T17:24:10.097Z,98010.53
2022-11-18T17:26:38.461Z,98012.25
2022-11-18T17:29:06.810Z,98018.19
2022-11-18T17:31:36.430Z,98029.13
2022-11-18T17:34:05.165Z,98029.13
2022-11-18T17:36:33.565Z,98024.91
2022-11-18T17:39:02.685Z,98028.38
2022-11-18T17:41:41.706Z,98028.41
2022-11-18T17:44:10.925Z,98035.22
2022-11-18T17:46:41.226Z,98042.78
2022-11-18T17:49:14.393Z,98045.34
2022-11-18T17:51:43.205Z,98048.75
2022-11-18T17:54:11.472Z,98057.22
2022-11-18T17:56:39.943Z,98054.75
2022-11-18T17:59:08.462Z,98056.41
2022-11-18T18:01:37.042Z,98061.53
2022-11-18T18:04:06.744Z,98067.47
2022-11-18T18:06:35.286Z,98068.31
2022-11-18T18:09:03.575Z,98069.16
2022-11-18T18:11:31.945Z,98078.47
2022-11-18T18:14:09.027Z,98083.53
2022-11-18T18:16:37.760Z,98080.13
2022-11-18T18:19:07.687Z,98086.91
2022-11-18T18:21:36.934Z,98089.41
2022-11-18T18:24:05.773Z,98092.81
2022-11-18T18:26:34.155Z,98094.50
2022-11-18T18:29:02.456Z,98107.13
2022-11-18T18:31:34.046Z,98101.28
2022-11-18T18:34:02.879Z,98103.81
2022-11-18T18:36:32.792Z,98120.66
2022-11-18T18:39:02.476Z,98124.91
2022-11-18T18:41:32.510Z,98124.09
2022-11-18T18:44:01.310Z,98117.34
2022-11-18T18:46:29.456Z,98133.38
2022-11-18T18:48:59.238Z,98139.28
2022-11-18T18:51:28.262Z,98136.75
2022-11-18T18:53:58.825Z,98145.19
2022-11-18T18:56:27.566Z,98154.44
2022-11-18T18:58:56.527Z,98157.81
2022-11-18T19:01:25.207Z,98154.44
2022-11-18T19:03:55.685Z,98160.38
2022-11-18T19:06:50.511Z,98166.28
2022-11-18T19:09:17.522Z,98167.09
2022-11-18T19:11:56.023Z,98173.03
2022-11-18T19:14:25.048Z,98171.34
2022-11-18T19:16:53.414Z,98182.28
2022-11-18T19:19:43.338Z,98181.47
2022-11-18T19:22:13.527Z,98205.03
2022-11-18T19:24:49.789Z,98211.78
2022-11-18T19:27:18.914Z,98210.94
2022-11-18T19:29:47.299Z,98217.69
2022-11-18T19:32:16.259Z,98227.81
2022-11-18T19:34:44.568Z,98223.56
2022-11-18T19:37:13.086Z,98231.97
2022-11-18T19:39:41.397Z,98238.75
2022-11-18T19:42:11.356Z,98237.03
2022-11-18T19:44:39.778Z,98236.19
2022-11-18T19:47:08.015Z,98242.09
2022-11-18T19:49:36.378Z,98236.19
2022-11-18T19:52:04.645Z,98236.22
2022-11-18T19:54:32.989Z,98238.72
2022-11-18T19:57:04.168Z,98237.06
2022-11-18T19:59:34.155Z,98242.09
2022-11-18T20:02:02.429Z,98248.00
2022-11-18T20:04:30.760Z,98253.91
2022-11-18T20:06:59.067Z,98254.72
2022-11-18T20:09:27.419Z,98255.56
2022-11-18T20:11:55.969Z,98253.03
2022-11-18T20:14:24.326Z,98258.09
2022-11-18T20:16:54.140Z,98267.34
2022-11-18T20:19:22.960Z,98274.09
2022-11-18T20:21:52.737Z,98276.59
2022-11-18T20:24:21.046Z,98277.44
2022-11-18T20:26:49.287Z,98280.78
2022-11-18T20:29:18.038Z,98286.69
2022-11-18T20:31:46.739Z,98287.53
2022-11-18T20:34:16.396Z,98295.94
2022-11-18T20:36:46.706Z,98304.34
2022-11-18T20:39:16.314Z,98308.53
2022-11-18T20:42:04.744Z,98312.75
2022-11-18T20:44:33.070Z,98321.13
2022-11-18T20:47:01.332Z,98312.69
2022-11-18T20:49:31.129Z,98321.09
2022-11-18T20:51:59.499Z,98330.38
2022-11-18T20:54:27.878Z,98330.38
2022-11-18T20:56:56.338Z,98339.63
2022-11-18T20:59:24.788Z,98340.47
2022-11-18T21:01:53.148Z,98349.72
2022-11-18T21:04:21.417Z,98348.91
2022-11-18T21:06:54.809Z,98348.91
2022-11-18T21:09:23.176Z,98352.22
2022-11-18T21:11:52.257Z,98337.94
2022-11-18T21:14:24.498Z,98336.25
2022-11-18T21:16:54.016Z,98354.78
2022-11-18T21:19:22.562Z,98363.19
2022-11-18T21:21:53.019Z,98362.34
2022-11-18T21:24:23.203Z,98370.75
2022-11-18T21:26:54.905Z,98374.13
2022-11-18T21:29:23.601Z,98374.97
2022-11-18T21:31:51.874Z,98373.25
2022-11-18T21:34:20.269Z,98381.66
2022-11-18T21:36:53.147Z,98387.53
2022-11-18T21:39:24.426Z,98376.59
2022-11-18T21:41:56.266Z,98381.63
2022-11-18T21:44:26.080Z,98396.72
2022-11-18T21:46:54.416Z,98386.63
2022-11-18T21:49:23.112Z,98394.97
2022-11-18T21:51:51.602Z,98405.06
2022-11-18T21:54:20.018Z,98400.03
2022-11-18T21:56:49.657Z,98403.41
2022-11-18T21:59:18.184Z,98412.66
2022-11-18T22:01:46.819Z,98419.38
2022-11-18T22:04:35.227Z,98416.84
2022-11-18T22:07:03.542Z,98410.03
2022-11-18T22:09:36.387Z,98415.06
2022-11-18T22:12:08.588Z,98425.16
2022-11-18T22:14:37.108Z,98425.13
2022-11-18T22:17:05.440Z,98433.50
2022-11-18T22:19:33.958Z,98437.72
2022-11-18T22:22:02.389Z,98436.84
2022-11-18T22:24:30.828Z,98439.38
2022-11-18T22:26:59.200Z,98437.63
2022-11-18T22:29:29.086Z,98446.03
2022-11-18T22:31:57.359Z,98446.00
2022-11-18T22:34:25.786Z,98452.69
2022-11-18T22:36:54.135Z,98461.09
2022-11-18T22:39:22.562Z,98467.88
2022-11-18T22:41:59.947Z,98471.22
2022-11-18T22:44:29.775Z,98470.34
2022-11-18T22:46:58.658Z,98469.50
2022-11-18T22:49:26.966Z,98475.34
2022-11-18T22:51:55.249Z,98481.22
2022-11-18T22:54:38.237Z,98487.09
2022-11-18T22:57:07.422Z,98491.28
2022-11-18T22:59:37.236Z,98494.63
2022-11-18T23:02:06.558Z,98494.56
2022-11-18T23:04:34.861Z,98487.78
2022-11-18T23:07:03.389Z,98490.28
2022-11-18T23:09:31.642Z,98505.41
2022-11-18T23:12:09.717Z,98510.44
2022-11-18T23:14:40.127Z,98515.50
2022-11-18T23:17:08.498Z,98512.13
2022-11-18T23:19:42.393Z,98519.66
2022-11-18T23:22:10.974Z,98527.19
2022-11-18T23:24:39.239Z,98515.44
2022-11-18T23:27:07.660Z,98517.09
2022-11-18T23:29:35.954Z,98520.47
2022-11-18T23:32:06.004Z,98515.38
2022-11-18T23:34:34.448Z,98512.78
2022-11-18T23:37:02.759Z,98515.31
2022-11-18T23:39:31.575Z,98505.13
2022-11-18T23:41:59.925Z,98500.91
2022-11-18T23:44:42.188Z,98497.53
2022-11-18T23:47:12.208Z,98503.38
2022-11-18T23:49:40.569Z,98515.16
2022-11-18T23:52:09.115Z,98526.09
2022-11-18T23:54:38.178Z,98536.97
2022-11-18T23:57:06.414Z,98534.44
2022-11-18T23:59:34.784Z,98526.84
